createdAt,value
2022-11-23T00:00:28.467Z,97998.09
2022-11-23T00:03:17.587Z,98000.48
2022-11-23T00:05:46.079Z,98002.37
2022-11-23T00:08:14.081Z,98003.16
2022-11-23T00:10:42.635Z,97996.26
2022-11-23T00:13:11.629Z,97990.73
2022-11-23T00:15:41.408Z,97986.23
2022-11-23T00:18:09.905Z,97985.98
2022-11-23T00:20:39.820Z,97981.20
2022-11-23T00:23:09.769Z,97982.48
2022-11-23T00:25:38.483Z,97983.90
2022-11-23T00:28:06.509Z,97982.47
2022-11-23T00:30:34.701Z,97979.91
2022-11-23T00:33:03.443Z,97977.92
2022-11-23T00:35:33.886Z,97973.92
2022-11-23T00:38:02.960Z,97978.30
2022-11-23T00:40:32.088Z,97983.00
2022-11-23T00:43:00.118Z,97984.05
2022-11-23T00:45:30.317Z,97984.78
2022-11-23T00:47:58.959Z,97989.48
2022-11-23T00:50:27.054Z,97984.45
2022-11-23T00:52:55.133Z,97986.24
2022-11-23T00:55:23.742Z,97995.44
2022-11-23T00:57:52.192Z,97998.04
2022-11-23T01:00:20.745Z,98003.67
2022-11-23T01:02:48.760Z,98011.36
2022-11-23T01:05:16.928Z,98016.15
2022-11-23T01:07:46.145Z,98022.07
2022-11-23T01:10:14.805Z,98022.31
2022-11-23T01:12:42.796Z,98020.79
2022-11-23T01:15:12.897Z,98020.72
2022-11-23T01:17:40.945Z,98024.10
2022-11-23T01:20:16.632Z,98028.77
2022-11-23T01:22:44.746Z,98032.02
2022-11-23T01:25:13.022Z,98031.16
2022-11-23T01:27:41.273Z,98032.25
2022-11-23T01:30:11.941Z,98033.98
2022-11-23T01:32:40.411Z,98033.81
2022-11-23T01:35:09.766Z,98032.98
2022-11-23T01:37:37.760Z,98036.67
2022-11-23T01:40:06.675Z,98036.02
2022-11-23T01:42:43.310Z,98034.64
2022-11-23T01:45:32.997Z,98040.55
2022-11-23T01:48:03.938Z,98042.02
2022-11-23T01:50:32.196Z,98041.00
2022-11-23T01:53:00.683Z,98044.08
2022-11-23T01:55:29.279Z,98043.19
2022-11-23T01:57:57.661Z,98044.59
2022-11-23T02:00:25.857Z,98048.52
2022-11-23T02:02:57.934Z,98049.90
2022-11-23T02:05:32.595Z,98051.75
2022-11-23T02:08:03.688Z,98053.02
2022-11-23T02:10:32.084Z,98048.77
2022-11-23T02:13:10.949Z,98046.00
2022-11-23T02:15:39.355Z,98044.97
2022-11-23T02:18:17.024Z,98043.25
2022-11-23T02:20:46.831Z,98043.80
2022-11-23T02:23:57.183Z,98049.93
2022-11-23T02:26:28.727Z,98052.56
2022-11-23T02:29:24.642Z,98052.39
2022-11-23T02:31:54.389Z,98051.98
2022-11-23T02:34:25.207Z,98049.34
2022-11-23T02:36:57.522Z,98046.46
2022-11-23T02:39:43.136Z,98041.28
2022-11-23T02:42:11.712Z,98033.29
2022-11-23T02:44:48.966Z,98029.52
2022-11-23T02:47:17.789Z,98029.25
2022-11-23T02:49:48.039Z,98032.95
2022-11-23T02:52:18.548Z,98025.73
2022-11-23T02:54:50.536Z,98024.75
2022-11-23T02:57:19.785Z,98023.64
2022-11-23T02:59:47.803Z,98026.69
2022-11-23T03:02:17.029Z,98026.48
2022-11-23T03:04:45.779Z,98029.05
2022-11-23T03:07:13.805Z,98030.15
2022-11-23T03:09:42.445Z,98030.48
2022-11-23T03:12:11.150Z,98033.04
2022-11-23T03:14:39.861Z,98031.39
2022-11-23T03:17:13.108Z,98030.04
2022-11-23T03:19:42.592Z,98026.30
2022-11-23T03:22:11.625Z,98026.71
2022-11-23T03:24:39.634Z,98025.96
2022-11-23T03:27:08.142Z,98029.73
2022-11-23T03:29:36.137Z,98034.34
2022-11-23T03:32:09.857Z,98034.96
2022-11-23T03:34:40.517Z,98030.58
2022-11-23T03:37:10.125Z,98028.48
2022-11-23T03:39:42.874Z,98030.04
2022-11-23T03:42:49.479Z,98029.60
2022-11-23T03:45:18.636Z,98029.34
2022-11-23T03:47:47.032Z,98030.58
2022-11-23T03:50:15.107Z,98027.52
2022-11-23T03:52:45.411Z,98022.03
2022-11-23T03:55:17.308Z,98023.31
2022-11-23T03:57:48.878Z,98026.02
2022-11-23T04:00:18.758Z,98025.85
2022-11-23T04:02:47.310Z,98030.70
2022-11-23T04:05:37.370Z,98031.21
2022-11-23T04:08:22.704Z,98030.62
2022-11-23T04:10:51.270Z,98030.09
2022-11-23T04:13:24.546Z,98032.05
2022-11-23T04:15:52.641Z,98032.77
2022-11-23T04:18:20.773Z,98029.83
2022-11-23T04:20:49.892Z,98027.22
2022-11-23T04:23:21.487Z,98026.83
2022-11-23T04:25:51.905Z,98027.55
2022-11-23T04:28:20.294Z,98031.02
2022-11-23T04:30:49.200Z,98031.74
2022-11-23T04:33:18.119Z,98030.25
2022-11-23T04:35:46.341Z,98033.89
2022-11-23T04:38:15.747Z,98035.27
2022-11-23T04:40:47.193Z,98038.06
2022-11-23T04:43:16.058Z,98037.33
2022-11-23T04:45:45.162Z,98038.22
2022-11-23T04:48:23.694Z,98038.43
2022-11-23T04:50:55.641Z,98043.57
2022-11-23T04:53:36.724Z,98048.04
2022-11-23T04:56:07.986Z,98050.59
2022-11-23T04:58:38.730Z,98050.23
2022-11-23T05:01:07.810Z,98048.04
2022-11-23T05:03:40.689Z,98050.83
2022-11-23T05:06:10.556Z,98047.83
2022-11-23T05:08:43.031Z,98042.10
2022-11-23T05:11:34.055Z,98045.00
2022-11-23T05:14:02.636Z,98052.27
2022-11-23T05:16:32.376Z,98051.37
2022-11-23T05:19:01.008Z,98049.95
2022-11-23T05:21:29.376Z,98045.73
2022-11-23T05:24:00.494Z,98043.92
2022-11-23T05:26:29.431Z,98047.54
2022-11-23T05:28:57.863Z,98046.79
2022-11-23T05:31:26.928Z,98043.92
2022-11-23T05:33:56.526Z,98045.90
2022-11-23T05:36:42.022Z,98049.98
2022-11-23T05:39:10.765Z,98048.86
2022-11-23T05:41:39.829Z,98049.95
2022-11-23T05:44:17.785Z,98050.52
2022-11-23T05:46:46.419Z,98051.80
2022-11-23T05:49:14.651Z,98052.43
2022-11-23T05:51:45.944Z,98048.40
2022-11-23T05:54:14.121Z,98051.27
2022-11-23T05:56:47.916Z,98049.62
2022-11-23T05:59:19.427Z,98048.37
2022-11-23T06:01:53.901Z,98046.11
2022-11-23T06:04:29.996Z,98047.79
2022-11-23T06:07:01.378Z,98053.13
2022-11-23T06:09:36.486Z,98059.35
2022-11-23T06:12:09.087Z,98061.59
2022-11-23T06:14:39.425Z,98060.72
2022-11-23T06:17:12.335Z,98061.21
2022-11-23T06:19:51.064Z,98063.61
2022-11-23T06:22:22.080Z,98064.67
2022-11-23T06:25:07.450Z,98065.60
2022-11-23T06:28:02.372Z,98069.54
2022-11-23T06:30:37.313Z,98075.54
2022-11-23T06:33:12.427Z,98076.52
2022-11-23T06:36:03.884Z,98079.10
2022-11-23T06:38:44.658Z,98080.79
2022-11-23T06:41:20.542Z,98081.08
2022-11-23T06:43:49.268Z,98083.98
2022-11-23T06:46:26.999Z,98083.52
2022-11-23T06:48:56.895Z,98086.89
2022-11-23T06:51:31.889Z,98090.38
2022-11-23T06:54:01.580Z,98091.99
2022-11-23T06:56:32.451Z,98095.55
2022-11-23T06:59:07.787Z,98098.20
2022-11-23T07:01:36.583Z,98103.59
2022-11-23T07:04:08.251Z,98104.29
2022-11-23T07:06:41.747Z,98107.88
2022-11-23T07:09:20.246Z,98109.37
2022-11-23T07:12:03.755Z,98109.70
2022-11-23T07:14:33.787Z,98108.61
2022-11-23T07:17:03.802Z,98112.98
2022-11-23T07:19:33.763Z,98116.08
2022-11-23T07:22:06.551Z,98119.59
2022-11-23T07:24:40.513Z,98123.23
2022-11-23T07:27:17.727Z,98126.96
2022-11-23T07:29:48.322Z,98127.50
2022-11-23T07:32:17.824Z,98129.08
2022-11-23T07:34:52.973Z,98134.02
2022-11-23T07:37:21.357Z,98134.91
2022-11-23T07:39:58.489Z,98134.27
2022-11-23T07:42:34.590Z,98133.70
2022-11-23T07:45:08.295Z,98134.95
2022-11-23T07:47:39.631Z,98132.96
2022-11-23T07:50:11.609Z,98133.85
2022-11-23T07:52:41.297Z,98129.35
2022-11-23T07:55:10.202Z,98130.91
2022-11-23T07:57:40.148Z,98131.67
2022-11-23T08:00:09.421Z,98132.45
2022-11-23T08:03:04.263Z,98132.14
2022-11-23T08:05:40.031Z,98127.35
2022-11-23T08:08:10.041Z,98128.29
2022-11-23T08:10:45.075Z,98129.63
2022-11-23T08:13:14.564Z,98121.84
2022-11-23T08:15:42.909Z,98116.19
2022-11-23T08:18:11.435Z,98110.39
2022-11-23T08:20:42.484Z,98109.14
2022-11-23T08:23:10.982Z,98112.23
2022-11-23T08:25:42.609Z,98117.79
2022-11-23T08:28:17.005Z,98114.02
2022-11-23T08:30:50.037Z,98114.10
2022-11-23T08:33:21.087Z,98117.11
2022-11-23T08:35:53.898Z,98117.70
2022-11-23T08:38:22.834Z,98113.02
2022-11-23T08:40:50.920Z,98110.59
2022-11-23T08:43:21.667Z,98107.11
2022-11-23T08:45:50.205Z,98106.08
2022-11-23T08:48:20.668Z,98103.77
2022-11-23T08:50:50.010Z,98110.54
2022-11-23T08:53:19.684Z,98119.49
2022-11-23T08:55:48.463Z,98119.38
2022-11-23T08:58:26.136Z,98118.41
2022-11-23T09:01:12.855Z,98124.02
2022-11-23T09:03:43.761Z,98125.13
2022-11-23T09:06:15.032Z,98127.08
2022-11-23T09:08:45.647Z,98124.95
2022-11-23T09:11:19.524Z,98124.02
2022-11-23T09:13:49.153Z,98127.77
2022-11-23T09:16:23.192Z,98125.48
2022-11-23T09:18:57.733Z,98126.02
2022-11-23T09:21:30.417Z,98124.52
2022-11-23T09:23:59.346Z,98123.36
2022-11-23T09:26:55.361Z,98114.27
2022-11-23T09:29:27.109Z,98113.67
2022-11-23T09:31:59.001Z,98109.20
2022-11-23T09:34:28.705Z,98104.17
2022-11-23T09:36:59.445Z,98097.47
2022-11-23T09:39:27.916Z,98094.30
2022-11-23T09:42:21.702Z,98091.04
2022-11-23T09:45:20.041Z,98092.81
2022-11-23T09:48:06.850Z,98094.03
2022-11-23T09:51:06.034Z,98092.71
2022-11-23T09:53:52.587Z,98092.58
2022-11-23T09:56:29.586Z,98090.98
2022-11-23T09:59:04.359Z,98085.77
2022-11-23T10:01:33.769Z,98083.89
2022-11-23T10:04:13.147Z,98088.23
2022-11-23T10:06:47.341Z,98087.16
2022-11-23T10:09:47.365Z,98086.56
2022-11-23T10:12:28.739Z,98083.11
2022-11-23T10:15:08.619Z,98080.54
2022-11-23T10:17:56.062Z,98077.34
2022-11-23T10:20:52.091Z,98076.13
2022-11-23T10:23:56.210Z,98072.09
2022-11-23T10:26:40.853Z,98069.14
2022-11-23T10:29:16.109Z,98063.16
2022-11-23T10:31:51.522Z,98060.77
2022-11-23T10:34:59.432Z,98052.60
2022-11-23T10:37:29.198Z,98047.50
2022-11-23T10:39:57.776Z,98046.85
2022-11-23T10:42:42.198Z,98047.97
2022-11-23T10:45:36.853Z,98049.69
2022-11-23T10:48:05.770Z,98049.81
2022-11-23T10:50:41.179Z,98048.05
2022-11-23T10:53:09.727Z,98042.91
2022-11-23T10:55:55.294Z,98042.46
2022-11-23T10:58:35.242Z,98043.70
2022-11-23T11:01:25.882Z,98049.27
2022-11-23T11:03:57.030Z,98052.94
2022-11-23T11:06:29.238Z,98048.54
2022-11-23T11:09:03.468Z,98047.08
2022-11-23T11:11:39.274Z,98045.31
2022-11-23T11:14:23.679Z,98043.27
2022-11-23T11:16:56.509Z,98039.96
2022-11-23T11:19:33.353Z,98036.27
2022-11-23T11:22:04.985Z,98033.46
2022-11-23T11:24:41.024Z,98033.10
2022-11-23T11:27:16.561Z,98033.52
2022-11-23T11:29:44.673Z,98033.61
2022-11-23T11:32:43.786Z,98031.20
2022-11-23T11:35:24.074Z,98032.42
2022-11-23T11:37:55.931Z,98031.45
2022-11-23T11:40:37.146Z,98031.24
2022-11-23T11:43:29.419Z,98031.58
2022-11-23T11:46:29.101Z,98027.05
2022-11-23T11:49:18.780Z,98032.18
2022-11-23T11:52:08.852Z,98037.06
2022-11-23T11:54:59.182Z,98040.83
2022-11-23T11:57:50.829Z,98040.65
2022-11-23T12:00:21.620Z,98046.54
2022-11-23T12:03:29.016Z,98050.73
2022-11-23T12:06:07.516Z,98051.19
2022-11-23T12:09:01.269Z,98049.96
2022-11-23T12:11:32.533Z,98048.56
2022-11-23T12:14:04.936Z,98049.48
2022-11-23T12:16:40.886Z,98052.95
2022-11-23T12:19:20.280Z,98057.41
2022-11-23T12:22:17.699Z,98057.73
2022-11-23T12:25:14.465Z,98056.89
2022-11-23T12:28:21.536Z,98058.67
2022-11-23T12:31:24.671Z,98059.17
2022-11-23T12:34:16.003Z,98058.16
2022-11-23T12:37:08.978Z,98052.23
2022-11-23T12:39:48.726Z,98053.67
2022-11-23T12:42:50.644Z,98057.17
2022-11-23T12:48:22.421Z,98062.09
2022-11-23T12:51:02.338Z,98061.28
2022-11-23T12:53:59.622Z,98061.30
2022-11-23T12:56:48.079Z,98058.46
2022-11-23T12:59:16.464Z,98057.11
2022-11-23T13:01:50.756Z,98060.58
2022-11-23T13:04:52.158Z,98059.48
2022-11-23T13:07:44.638Z,98058.95
2022-11-23T13:10:44.865Z,98064.50
2022-11-23T13:13:43.300Z,98070.00
2022-11-23T13:16:19.058Z,98072.06
2022-11-23T13:18:53.312Z,98069.34
2022-11-23T13:21:35.345Z,98072.99
2022-11-23T13:24:02.397Z,98076.85
2022-11-23T13:26:31.121Z,98079.85
2022-11-23T13:28:58.574Z,98078.86
2022-11-23T13:31:33.039Z,98076.23
2022-11-23T13:34:03.223Z,98081.59
2022-11-23T13:36:56.307Z,98084.54
2022-11-23T13:39:59.588Z,98085.81
2022-11-23T13:42:30.556Z,98089.72
2022-11-23T13:45:21.456Z,98091.13
2022-11-23T13:48:34.106Z,98091.63
2022-11-23T13:51:01.504Z,98092.70
2022-11-23T13:53:41.642Z,98095.20
2022-11-23T13:56:42.882Z,98097.63
2022-11-23T13:59:15.541Z,98094.61
2022-11-23T14:02:02.133Z,98095.47
2022-11-23T14:04:31.874Z,98094.31
2022-11-23T14:07:17.311Z,98096.30
2022-11-23T14:10:17.722Z,98095.14
2022-11-23T14:12:56.448Z,98093.58
2022-11-23T14:15:54.451Z,98098.02
2022-11-23T14:18:51.153Z,98099.67
2022-11-23T14:21:44.687Z,98100.66
2022-11-23T14:24:38.182Z,98100.63
2022-11-23T14:27:47.275Z,98102.98
2022-11-23T14:30:33.497Z,98105.11
2022-11-23T14:33:28.417Z,98103.16
2022-11-23T14:36:14.236Z,98106.13
2022-11-23T14:39:20.580Z,98103.40
2022-11-23T14:42:23.044Z,98108.81
2022-11-23T14:45:13.216Z,98110.23
2022-11-23T14:48:02.506Z,98110.98
2022-11-23T14:50:47.388Z,98115.39
2022-11-23T14:53:48.846Z,98112.76
2022-11-23T14:57:08.995Z,98111.66
2022-11-23T15:00:02.411Z,98114.21
2022-11-23T15:02:59.709Z,98112.31
2022-11-23T15:06:20.827Z,98108.77
2022-11-23T15:09:30.684Z,98104.48
2022-11-23T15:12:35.099Z,98110.29
2022-11-23T15:15:37.961Z,98108.50
2022-11-23T15:18:55.453Z,98104.58
2022-11-23T15:21:46.421Z,98106.28
2022-11-23T15:24:48.306Z,98104.05
2022-11-23T15:27:45.941Z,98101.92
2022-11-23T15:30:41.792Z,98103.53
2022-11-23T15:33:34.753Z,98107.61
2022-11-23T15:36:30.857Z,98108.63
2022-11-23T15:39:17.989Z,98107.65
2022-11-23T15:41:46.758Z,98104.94
2022-11-23T15:44:22.891Z,98105.35
2022-11-23T15:46:52.373Z,98106.91
2022-11-23T15:49:20.150Z,98105.64
2022-11-23T15:51:47.528Z,98105.84
2022-11-23T15:54:21.649Z,98107.59
2022-11-23T15:56:51.776Z,98104.35
2022-11-23T15:59:31.319Z,98106.88
2022-11-23T16:02:01.679Z,98106.77
2022-11-23T16:04:32.454Z,98108.33
2022-11-23T16:07:27.384Z,98108.88
2022-11-23T16:10:21.233Z,98105.70
2022-11-23T16:12:54.238Z,98107.44
2022-11-23T16:15:27.129Z,98107.57
2022-11-23T16:17:54.677Z,98114.73
2022-11-23T16:20:24.775Z,98112.27
2022-11-23T16:22:53.690Z,98112.98
2022-11-23T16:25:33.592Z,98113.34
2022-11-23T16:28:02.027Z,98111.42
2022-11-23T16:30:41.486Z,98110.88
2022-11-23T16:33:16.868Z,98111.34
2022-11-23T16:35:44.648Z,98114.00
2022-11-23T16:38:12.318Z,98114.06
2022-11-23T16:40:43.753Z,98113.42
2022-11-23T16:43:11.656Z,98113.85
2022-11-23T16:45:40.911Z,98117.52
2022-11-23T16:48:27.830Z,98117.54
2022-11-23T16:50:56.653Z,98119.97
2022-11-23T16:53:30.028Z,98127.61
2022-11-23T16:55:59.837Z,98119.16
2022-11-23T16:58:31.315Z,98119.46
2022-11-23T17:00:58.090Z,98120.14
2022-11-23T17:03:25.256Z,98126.54
2022-11-23T17:05:52.242Z,98124.58
2022-11-23T17:08:23.593Z,98122.84
2022-11-23T17:10:52.031Z,98123.57
2022-11-23T17:13:26.430Z,98122.45
2022-11-23T17:15:55.159Z,98119.48
2022-11-23T17:18:22.714Z,98118.11
2022-11-23T17:20:49.725Z,98117.34
2022-11-23T17:23:17.895Z,98118.27
2022-11-23T17:25:45.390Z,98120.17
2022-11-23T17:28:16.683Z,98126.05
2022-11-23T17:30:43.748Z,98121.21
2022-11-23T17:33:11.715Z,98118.88
2022-11-23T17:35:39.602Z,98117.45
2022-11-23T17:38:13.448Z,98120.80
2022-11-23T17:40:40.674Z,98123.66
2022-11-23T17:43:19.034Z,98131.13
2022-11-23T17:45:47.427Z,98130.77
2022-11-23T17:48:17.413Z,98133.89
2022-11-23T17:50:46.830Z,98143.42
2022-11-23T17:53:13.441Z,98150.70
2022-11-23T17:55:42.807Z,98151.86
2022-11-23T17:58:11.474Z,98152.52
2022-11-23T18:00:38.882Z,98149.91
2022-11-23T18:03:05.670Z,98145.05
2022-11-23T18:05:32.642Z,98149.41
2022-11-23T18:07:59.405Z,98144.15
2022-11-23T18:10:26.016Z,98145.35
2022-11-23T18:12:52.642Z,98151.90
2022-11-23T18:15:19.378Z,98146.82
2022-11-23T18:17:47.596Z,98148.65
2022-11-23T18:20:15.888Z,98151.84
2022-11-23T18:22:44.076Z,98149.39
2022-11-23T18:25:10.986Z,98155.57
2022-11-23T18:27:37.709Z,98157.61
2022-11-23T18:30:06.397Z,98153.65
2022-11-23T18:32:33.292Z,98155.13
2022-11-23T18:34:59.972Z,98156.11
2022-11-23T18:37:26.655Z,98152.48
2022-11-23T18:39:54.076Z,98152.48
2022-11-23T18:42:21.007Z,98154.34
2022-11-23T18:45:10.445Z,98157.43
2022-11-23T18:47:38.559Z,98161.41
2022-11-23T18:50:15.091Z,98157.58
2022-11-23T18:52:50.549Z,98158.27
2022-11-23T18:55:17.140Z,98156.60
2022-11-23T18:57:45.563Z,98159.69
2022-11-23T19:00:15.133Z,98164.95
2022-11-23T19:02:43.726Z,98169.20
2022-11-23T19:05:11.060Z,98169.69
2022-11-23T19:07:38.147Z,98168.89
2022-11-23T19:10:07.660Z,98169.46
2022-11-23T19:12:38.418Z,98177.40
2022-11-23T19:15:09.237Z,98183.14
2022-11-23T19:17:37.005Z,98185.33
2022-11-23T19:20:07.900Z,98182.11
2022-11-23T19:22:35.438Z,98182.73
2022-11-23T19:25:04.827Z,98186.18
2022-11-23T19:27:35.445Z,98188.91
2022-11-23T19:30:04.916Z,98193.75
2022-11-23T19:32:33.115Z,98189.57
2022-11-23T19:34:59.868Z,98191.81
2022-11-23T19:37:27.094Z,98195.00
2022-11-23T19:39:53.719Z,98198.19
2022-11-23T19:42:20.331Z,98196.84
2022-11-23T19:44:46.938Z,98197.75
2022-11-23T19:47:18.666Z,98195.66
2022-11-23T19:49:48.092Z,98196.38
2022-11-23T19:52:14.811Z,98198.10
2022-11-23T19:54:41.524Z,98200.84
2022-11-23T19:57:08.188Z,98203.02
2022-11-23T19:59:35.586Z,98200.56
2022-11-23T20:02:07.052Z,98203.96
2022-11-23T20:04:35.373Z,98199.85
2022-11-23T20:07:02.687Z,98197.55
2022-11-23T20:09:30.027Z,98200.34
2022-11-23T20:11:56.721Z,98202.23
2022-11-23T20:14:24.815Z,98205.22
2022-11-23T20:16:51.452Z,98210.48
2022-11-23T20:19:17.994Z,98209.42
2022-11-23T20:21:44.590Z,98206.10
2022-11-23T20:24:13.536Z,98202.30
2022-11-23T20:26:42.755Z,98199.94
2022-11-23T20:29:09.661Z,98207.95
2022-11-23T20:31:37.019Z,98208.18
2022-11-23T20:34:07.394Z,98209.72
2022-11-23T20:36:37.458Z,98215.23
2022-11-23T20:39:10.349Z,98214.66
2022-11-23T20:41:37.774Z,98218.54
2022-11-23T20:44:10.913Z,98225.58
2022-11-23T20:49:24.789Z,98225.10
2022-11-23T20:51:54.101Z,98224.04
2022-11-23T20:54:21.265Z,98222.86
2022-11-23T20:56:47.817Z,98225.13
2022-11-23T20:59:15.239Z,98224.34
2022-11-23T21:01:41.962Z,98224.47
2022-11-23T21:04:09.634Z,98229.51
2022-11-23T21:06:39.470Z,98229.27
2022-11-23T21:09:08.886Z,98230.39
2022-11-23T21:11:55.058Z,98228.80
2022-11-23T21:14:26.477Z,98233.54
2022-11-23T21:16:55.402Z,98237.09
2022-11-23T21:19:27.701Z,98238.75
2022-11-23T21:21:56.426Z,98238.11
2022-11-23T21:24:24.369Z,98241.45
2022-11-23T21:26:51.364Z,98243.09
2022-11-23T21:29:19.334Z,98242.30
2022-11-23T21:31:48.683Z,98243.55
2022-11-23T21:34:19.965Z,98247.15
2022-11-23T21:36:46.973Z,98249.38
2022-11-23T21:39:14.202Z,98247.02
2022-11-23T21:41:41.982Z,98248.33
2022-11-23T21:44:09.846Z,98259.98
2022-11-23T21:46:38.573Z,98260.27
2022-11-23T21:49:06.262Z,98257.80
2022-11-23T21:51:34.756Z,98251.43
2022-11-23T21:54:06.840Z,98249.84
2022-11-23T21:56:33.699Z,98247.93
2022-11-23T21:59:01.601Z,98249.13
2022-11-23T22:01:30.930Z,98245.90
2022-11-23T22:04:09.994Z,98249.52
2022-11-23T22:06:38.475Z,98247.88
2022-11-23T22:09:08.619Z,98248.78
2022-11-23T22:11:37.355Z,98248.79
2022-11-23T22:14:12.168Z,98249.61
2022-11-23T22:16:47.078Z,98252.55
2022-11-23T22:19:16.123Z,98252.25
2022-11-23T22:21:44.769Z,98253.73
2022-11-23T22:24:17.457Z,98258.75
2022-11-23T22:26:45.406Z,98260.45
2022-11-23T22:29:12.451Z,98266.68
2022-11-23T22:31:40.118Z,98263.80
2022-11-23T22:34:10.576Z,98263.38
2022-11-23T22:36:37.381Z,98267.27
2022-11-23T22:39:06.487Z,98272.89
2022-11-23T22:41:37.891Z,98271.52
2022-11-23T22:44:07.051Z,98269.84
2022-11-23T22:46:34.588Z,98272.64
2022-11-23T22:49:01.491Z,98277.42
2022-11-23T22:51:29.090Z,98286.38
2022-11-23T22:53:58.339Z,98292.73
2022-11-23T22:56:26.288Z,98293.86
2022-11-23T22:58:53.065Z,98290.60
2022-11-23T23:01:26.066Z,98286.70
2022-11-23T23:03:57.509Z,98284.86
2022-11-23T23:06:26.402Z,98285.67
2022-11-23T23:08:57.693Z,98284.10
2022-11-23T23:11:25.605Z,98282.34
2022-11-23T23:13:53.089Z,98281.55
2022-11-23T23:16:20.533Z,98285.67
2022-11-23T23:18:47.902Z,98284.57
2022-11-23T23:21:17.237Z,98284.45
2022-11-23T23:23:47.252Z,98286.89
2022-11-23T23:26:15.789Z,98285.68
2022-11-23T23:28:43.145Z,98288.88
2022-11-23T23:31:12.096Z,98293.15
2022-11-23T23:33:41.037Z,98289.27
2022-11-23T23:36:22.114Z,98282.57
2022-11-23T23:38:49.399Z,98278.66
2022-11-23T23:41:16.125Z,98281.38
2022-11-23T23:43:43.937Z,98282.48
2022-11-23T23:46:13.027Z,98281.44
2022-11-23T23:48:41.096Z,98283.98
2022-11-23T23:51:08.928Z,98288.34
2022-11-23T23:53:36.980Z,98288.59
2022-11-23T23:56:07.042Z,98290.15
2022-11-23T23:58:34.186Z,98292.95
